Time;durP1;ratioP1;P1;durP2;ratioP2;P2;SDS_P1;SDS_P2;PMS_P1;PMS_P2;Temp;Humidity;BMP_temperature;BMP_pressure;BME280_temperature;BME280_humidity;BME280_pressure;Samples;Min_cycle;Max_cycle;Signal;HPM_P1;HPM_P2
2022/05/15 00:02:18;;;;;;;16.38;9.88;;;;;;;17.77;nan;95347.81;5058222;28;20153;-85
2022/05/15 00:04:44;;;;;;;22.27;9.15;;;;;;;17.36;nan;95300.69;5052015;28;20048;-85
2022/05/15 00:07:09;;;;;;;17.23;9.52;;;;;;;17.39;nan;95319.94;5072229;28;20043;-85
2022/05/15 00:09:35;;;;;;;21.73;9.60;;;;;;;18.31;nan;95455.66;5061849;28;20425;-85
2022/05/15 00:12:03;;;;;;;26.67;9.73;;;;;;;18.10;nan;95432.09;5077388;28;20524;-85
2022/05/15 00:14:29;;;;;;;21.25;10.80;;;;;;;15.90;nan;95098.63;5077901;28;20048;-85
2022/05/15 00:16:54;;;;;;;19.77;11.80;;;;;;;17.69;nan;95372.72;5067466;28;20543;-85
2022/05/15 00:19:20;;;;;;;18.13;12.38;;;;;;;17.91;nan;95410.16;5049193;28;20048;-85
2022/05/15 00:21:45;;;;;;;25.73;11.38;;;;;;;17.63;nan;95347.13;5061825;28;20411;-85
2022/05/15 00:24:11;;;;;;;21.80;12.45;;;;;;;17.18;nan;95312.47;5066730;28;20051;-85
2022/05/15 00:26:36;;;;;;;22.38;11.45;;;;;;;15.63;nan;95072.88;5060025;28;20044;-85
2022/05/15 00:29:02;;;;;;;20.38;11.80;;;;;;;16.50;nan;95203.19;5044544;28;20597;-85
2022/05/15 00:31:28;;;;;;;20.58;12.43;;;;;;;17.34;nan;95310.94;5074727;28;20585;-85
2022/05/15 00:33:54;;;;;;;18.40;11.98;;;;;;;16.69;nan;95237.81;5041552;28;20132;-85
2022/05/15 00:36:19;;;;;;;29.05;13.68;;;;;;;16.97;nan;95285.47;5040092;28;20414;-85
2022/05/15 00:38:45;;;;;;;19.50;12.27;;;;;;;16.81;nan;95311.09;5058955;28;20067;-85
2022/05/15 00:41:12;;;;;;;21.98;12.10;;;;;;;15.18;nan;95069.44;5055382;28;20487;-85
2022/05/15 00:43:47;;;;;;;29.40;13.55;;;;;;;17.08;nan;95365.56;5043976;28;20563;-85
2022/05/15 00:46:23;;;;;;;20.05;12.35;;;;;;;16.98;nan;95326.44;5070766;28;20028;-85
2022/05/15 00:48:50;;;;;;;21.77;13.32;;;;;;;16.13;nan;95197.22;5049892;28;20048;-85
2022/05/15 00:51:28;;;;;;;20.88;13.25;;;;;;;17.77;nan;95435.53;5059532;28;20044;-85
2022/05/15 00:54:02;;;;;;;33.92;19.33;;;;;;;16.69;nan;95335.00;5059584;28;20805;-85
2022/05/15 00:56:31;;;;;;;40.58;21.52;;;;;;;16.98;nan;95331.81;5059465;28;20050;-85
2022/05/15 00:59:09;;;;;;;25.10;14.43;;;;;;;14.88;nan;95028.22;5039584;28;20068;-85
2022/05/15 01:01:34;;;;;;;22.60;13.65;;;;;;;17.49;nan;95413.47;5039550;28;20048;-85
2022/05/15 01:04:01;;;;;;;25.00;13.27;;;;;;;17.12;nan;95388.75;5058694;28;20046;-85
2022/05/15 01:06:26;;;;;;;23.00;13.85;;;;;;;17.22;nan;95391.16;5058246;28;20675;-85
2022/05/15 01:08:52;;;;;;;25.15;13.93;;;;;;;15.51;nan;95113.50;5050662;28;20093;-85
2022/05/15 01:11:20;;;;;;;22.75;12.52;;;;;;;16.73;nan;95330.59;5066625;28;20040;-85
2022/05/15 01:13:48;;;;;;;22.67;12.02;;;;;;;15.71;nan;95169.16;5048727;28;20583;-86
2022/05/15 01:16:19;;;;;;;27.92;12.50;;;;;;;17.44;nan;95435.06;5038647;28;20049;-85
2022/05/15 01:18:47;;;;;;;17.35;12.23;;;;;;;16.86;nan;95361.06;5050947;28;20044;-85
2022/05/15 01:21:24;;;;;;;20.60;12.02;;;;;;;17.57;nan;95436.84;5043580;28;20395;-85
2022/05/15 01:23:50;;;;;;;25.17;12.30;;;;;;;16.81;nan;95326.38;5057799;28;20419;-87
2022/05/15 01:26:16;;;;;;;20.05;12.65;;;;;;;17.43;nan;95430.81;5040075;28;20028;-86
2022/05/15 01:28:45;;;;;;;21.38;11.60;;;;;;;16.93;nan;95375.59;5074074;28;20075;-87
2022/05/15 01:31:12;;;;;;;19.00;11.65;;;;;;;17.26;nan;95440.34;5062098;28;20038;-86
2022/05/15 01:33:38;;;;;;;21.45;11.65;;;;;;;16.73;nan;95345.88;5054085;28;20040;-86
2022/05/15 01:36:05;;;;;;;19.40;11.23;;;;;;;16.49;nan;95306.03;5038630;28;20036;-86
2022/05/15 01:38:30;;;;;;;28.65;11.68;;;;;;;16.26;nan;95272.34;5039012;28;20076;-86
2022/05/15 01:40:56;;;;;;;20.90;11.00;;;;;;;15.44;nan;95129.97;5066642;28;20063;-86
2022/05/15 01:43:22;;;;;;;23.40;11.50;;;;;;;16.76;nan;95346.06;5075293;28;20044;-86
2022/05/15 01:45:47;;;;;;;23.67;11.65;;;;;;;15.13;nan;95121.09;5064760;28;21052;-86
2022/05/15 01:48:12;;;;;;;23.63;12.15;;;;;;;15.55;nan;95159.16;5056637;28;20057;-86
2022/05/15 01:50:38;;;;;;;20.55;12.07;;;;;;;16.88;nan;95401.72;5052914;28;20036;-86
2022/05/15 01:53:04;;;;;;;17.00;11.63;;;;;;;16.54;nan;95320.09;5058439;28;20044;-86
2022/05/15 01:55:29;;;;;;;17.80;11.27;;;;;;;16.27;nan;95282.75;5077221;28;20048;-86
2022/05/15 01:57:55;;;;;;;20.67;11.73;;;;;;;16.98;nan;95406.81;5039226;28;20148;-86
2022/05/15 02:00:23;;;;;;;20.63;11.20;;;;;;;16.72;nan;95389.81;5059189;28;20511;-86
2022/05/15 02:02:49;;;;;;;18.35;12.13;;;;;;;17.09;nan;95432.22;5058759;28;20040;-86
2022/05/15 02:05:16;;;;;;;20.17;11.57;;;;;;;17.11;nan;95438.09;5055752;28;20168;-86
2022/05/15 02:07:41;;;;;;;22.05;11.35;;;;;;;16.64;nan;95371.81;5055843;28;20143;-86
2022/05/15 02:10:08;;;;;;;19.83;11.60;;;;;;;16.84;nan;95398.88;5051993;28;20498;-86
2022/05/15 02:12:35;;;;;;;19.27;11.60;;;;;;;16.60;nan;95366.25;5052124;28;20139;-86
2022/05/15 02:15:02;;;;;;;20.08;10.75;;;;;;;14.15;nan;94984.75;5068197;28;20044;-86
2022/05/15 02:17:28;;;;;;;16.17;10.27;;;;;;;17.06;nan;95432.88;5082100;28;20048;-86
2022/05/15 02:19:53;;;;;;;20.08;10.73;;;;;;;16.17;nan;95299.84;5044947;28;20052;-86
2022/05/15 02:22:19;;;;;;;19.30;10.48;;;;;;;17.04;nan;95443.09;5038683;28;20055;-86
2022/05/15 02:24:45;;;;;;;16.70;11.52;;;;;;;16.24;nan;95384.28;5038228;28;20036;-86
2022/05/15 02:27:11;;;;;;;22.25;11.35;;;;;;;16.74;nan;95449.22;5074310;28;20032;-86
2022/05/15 02:29:36;;;;;;;20.58;10.27;;;;;;;15.99;nan;95311.56;5076004;28;20506;-86
2022/05/15 02:32:03;;;;;;;20.20;10.93;;;;;;;14.80;nan;95120.50;5057016;28;20040;-86
2022/05/15 02:34:28;;;;;;;19.63;11.13;;;;;;;15.32;nan;95298.06;5038665;28;20044;-86
2022/05/15 02:36:54;;;;;;;16.35;11.05;;;;;;;16.53;nan;95441.66;5047801;28;20043;-85
2022/05/15 02:39:19;;;;;;;21.92;12.10;;;;;;;15.94;nan;95353.69;5057238;28;20047;-86
2022/05/15 02:41:45;;;;;;;19.08;11.07;;;;;;;15.79;nan;95320.81;5061107;28;20048;-86
2022/05/15 02:44:10;;;;;;;23.77;12.30;;;;;;;14.84;nan;95174.09;5069794;28;20868;-86
2022/05/15 02:46:36;;;;;;;16.92;10.55;;;;;;;16.26;nan;95382.06;5052417;28;20862;-86
2022/05/15 02:51:46;;;;;;;19.40;11.05;;;;;;;16.39;nan;95405.34;5080604;28;20071;-86
2022/05/15 02:54:11;;;;;;;16.38;10.32;;;;;;;16.08;nan;95362.44;5062617;28;20036;-86
2022/05/15 02:56:37;;;;;;;19.45;10.38;;;;;;;15.91;nan;95349.72;5045227;28;20134;-86
2022/05/15 02:59:04;;;;;;;21.63;11.02;;;;;;;14.57;nan;95142.91;5060269;28;20509;-86
2022/05/15 03:01:30;;;;;;;18.05;10.70;;;;;;;14.93;nan;95202.47;5057104;28;20100;-86
2022/05/15 03:03:55;;;;;;;19.60;10.93;;;;;;;16.13;nan;95410.47;5080555;28;20046;-86
2022/05/15 03:06:21;;;;;;;19.40;10.70;;;;;;;16.02;nan;95399.19;5078898;28;20580;-86
2022/05/15 03:08:48;;;;;;;14.85;10.07;;;;;;;14.94;nan;95241.44;5058719;28;20044;-86
2022/05/15 03:11:14;;;;;;;16.80;10.73;;;;;;;15.44;nan;95365.13;5043460;28;20048;-86
2022/05/15 03:13:41;;;;;;;16.67;10.65;;;;;;;15.92;nan;95409.34;5058926;28;20044;-86
2022/05/15 03:16:08;;;;;;;19.33;11.43;;;;;;;16.39;nan;95466.91;5066475;28;20100;-86
2022/05/15 03:18:40;;;;;;;16.98;10.23;;;;;;;15.95;nan;95414.09;5061286;28;20651;-86
2022/05/15 03:21:06;;;;;;;18.02;11.02;;;;;;;16.06;nan;95439.53;5056970;28;20060;-86
2022/05/15 03:23:31;;;;;;;22.15;10.98;;;;;;;15.78;nan;95412.06;5054724;28;20131;-86
2022/05/15 03:25:57;;;;;;;15.25;10.48;;;;;;;16.09;nan;95442.41;5071831;28;20039;-86
2022/05/15 03:28:22;;;;;;;18.48;10.40;;;;;;;15.85;nan;95423.13;5078833;28;20451;-86
2022/05/15 03:30:48;;;;;;;19.83;11.13;;;;;;;15.44;nan;95334.94;5064588;28;20427;-86
2022/05/15 03:33:15;;;;;;;25.75;10.63;;;;;;;16.14;nan;95538.59;5056691;28;20060;-86
2022/05/15 03:35:41;;;;;;;21.40;11.02;;;;;;;16.02;nan;95442.00;5060194;28;20050;-86
2022/05/15 03:38:07;;;;;;;23.15;12.05;;;;;;;14.51;nan;95194.78;5059465;28;20113;-86
2022/05/15 03:40:33;;;;;;;21.15;11.82;;;;;;;14.51;nan;95222.28;5061724;28;20047;-86
2022/05/15 03:42:59;;;;;;;24.05;12.00;;;;;;;14.04;nan;95114.03;5079883;28;20048;-86
2022/05/15 03:45:25;;;;;;;24.48;11.40;;;;;;;13.96;nan;95149.38;5058023;28;20486;-85
2022/05/15 03:47:53;;;;;;;24.52;11.10;;;;;;;16.07;nan;95443.78;5039837;28;20044;-86
2022/05/15 03:50:24;;;;;;;23.70;11.73;;;;;;;15.99;nan;95426.56;5065485;28;20040;-86
2022/05/15 03:52:50;;;;;;;;;;;;;;;16.41;nan;95486.91;5062040;28;20047;-86
2022/05/15 03:55:16;;;;;;;23.08;12.38;;;;;;;15.64;nan;95400.59;5079896;28;20464;-86
2022/05/15 03:57:42;;;;;;;25.42;11.75;;;;;;;15.59;nan;95371.28;5079894;28;20052;-86
2022/05/15 04:00:12;;;;;;;17.85;11.90;;;;;;;16.42;nan;95485.81;5049134;28;20931;-85
2022/05/15 04:02:38;;;;;;;25.70;11.55;;;;;;;15.65;nan;95394.13;5041403;28;20369;-86
2022/05/15 04:05:05;;;;;;;21.48;11.98;;;;;;;16.01;nan;95436.97;5073523;28;20062;-86
2022/05/15 04:07:31;;;;;;;17.17;11.25;;;;;;;15.94;nan;95466.03;5061968;28;20028;-86
2022/05/15 04:09:56;;;;;;;23.15;11.43;;;;;;;14.06;nan;95157.22;5044193;28;20075;-86
2022/05/15 04:12:22;;;;;;;23.85;10.38;;;;;;;16.47;nan;95493.75;5059005;28;20070;-85
2022/05/15 04:14:47;;;;;;;19.30;11.13;;;;;;;14.32;nan;95183.41;5059835;28;20153;-86
2022/05/15 04:17:13;;;;;;;17.88;11.40;;;;;;;16.14;nan;95444.16;5059916;28;20040;-87
2022/05/15 04:19:38;;;;;;;27.13;12.80;;;;;;;16.02;nan;95412.56;5079376;28;20048;-86
2022/05/15 04:22:05;;;;;;;24.40;10.80;;;;;;;14.47;nan;95201.81;5078434;28;20147;-86
2022/05/15 04:24:34;;;;;;;15.02;9.82;;;;;;;15.52;nan;95354.84;5085503;28;20801;-86
2022/05/15 04:27:01;;;;;;;19.27;10.50;;;;;;;14.46;nan;95217.03;5058905;28;20306;-85
2022/05/15 04:29:27;;;;;;;22.27;10.60;;;;;;;16.52;nan;95508.88;5066946;28;20115;-86
2022/05/15 04:31:55;;;;;;;16.52;9.73;;;;;;;15.75;nan;95380.56;5049749;28;20143;-86
2022/05/15 04:34:25;;;;;;;18.48;9.77;;;;;;;16.64;nan;95501.13;5070683;28;20131;-86
2022/05/15 04:36:51;;;;;;;20.80;10.20;;;;;;;15.47;nan;95318.31;5060262;28;20157;-86
2022/05/15 04:39:18;;;;;;;15.25;10.00;;;;;;;16.11;nan;95405.41;5076907;28;20047;-86
2022/05/15 04:41:43;;;;;;;21.25;11.05;;;;;;;15.16;nan;95240.72;5063043;28;20055;-86
2022/05/15 04:44:09;;;;;;;17.08;9.45;;;;;;;16.30;nan;95431.22;5040645;28;20377;-85
2022/05/15 04:46:34;;;;;;;21.27;10.40;;;;;;;16.22;nan;95403.31;5040410;28;20029;-86
2022/05/15 04:49:01;;;;;;;16.95;10.07;;;;;;;15.48;nan;95293.19;5058754;28;20044;-85
2022/05/15 04:51:27;;;;;;;21.48;10.35;;;;;;;16.98;nan;95496.03;5039839;28;20423;-85
2022/05/15 04:53:53;;;;;;;23.75;11.05;;;;;;;16.90;nan;95510.16;5075436;28;20549;-85
2022/05/15 04:56:19;;;;;;;20.83;11.55;;;;;;;15.74;nan;95337.00;5041823;28;20032;-86
2022/05/15 04:58:45;;;;;;;24.30;10.85;;;;;;;17.09;nan;95503.81;5078532;28;20054;-86
2022/05/15 05:01:11;;;;;;;24.45;10.40;;;;;;;16.34;nan;95378.66;5059112;28;20044;-86
2022/05/15 05:03:36;;;;;;;24.80;9.00;;;;;;;16.35;nan;95397.09;5059391;28;20534;-86
2022/05/15 05:06:02;;;;;;;19.60;9.40;;;;;;;17.12;nan;95495.94;5072770;28;20448;-86
2022/05/15 05:08:27;;;;;;;15.70;8.18;;;;;;;17.10;nan;95511.53;5059149;28;20765;-86
2022/05/15 05:10:53;;;;;;;23.67;9.52;;;;;;;16.48;nan;95387.41;5068545;28;20141;-86
2022/05/15 05:13:18;;;;;;;22.63;9.88;;;;;;;16.71;nan;95404.28;5050245;28;20121;-85
2022/05/15 05:15:44;;;;;;;18.42;8.93;;;;;;;16.56;nan;95395.50;5059059;28;20075;-85
2022/05/15 05:18:13;;;;;;;20.83;9.02;;;;;;;17.31;nan;95509.16;5058977;28;20071;-85
2022/05/15 05:20:38;;;;;;;19.98;8.60;;;;;;;15.92;nan;95303.16;5060768;28;20052;-86
2022/05/15 05:23:04;;;;;;;19.10;8.95;;;;;;;16.28;nan;95361.94;5052864;28;20037;-85
2022/05/15 05:25:30;;;;;;;20.98;8.57;;;;;;;16.97;nan;95458.81;5076365;28;20048;-85
2022/05/15 05:27:55;;;;;;;19.88;8.95;;;;;;;16.59;nan;95384.22;5076657;28;20071;-86
2022/05/15 05:30:23;;;;;;;20.17;9.07;;;;;;;17.53;nan;95501.06;5075825;28;20837;-86
2022/05/15 05:32:49;;;;;;;17.38;8.02;;;;;;;16.82;nan;95395.72;5053763;28;20502;-86
2022/05/15 05:35:16;;;;;;;19.85;8.27;;;;;;;16.87;nan;95418.88;5057447;28;20067;-86
2022/05/15 05:37:42;;;;;;;26.48;8.88;;;;;;;17.05;nan;95450.03;5038867;28;20032;-86
2022/05/15 05:40:09;;;;;;;18.38;8.23;;;;;;;17.11;nan;95443.44;5052197;28;20040;-86
2022/05/15 05:42:34;;;;;;;21.73;8.52;;;;;;;17.14;nan;95442.03;5065794;28;20347;-86
2022/05/15 05:45:02;;;;;;;14.52;8.00;;;;;;;16.51;nan;95363.53;5037656;28;20112;-86
2022/05/15 05:47:28;;;;;;;23.23;7.22;;;;;;;16.66;nan;95388.34;5056030;28;20414;-85
2022/05/15 05:49:54;;;;;;;23.00;7.68;;;;;;;17.30;nan;95467.34;5048221;28;20059;-85
2022/05/15 05:52:21;;;;;;;19.73;7.80;;;;;;;17.01;nan;95410.78;5053905;28;20040;-84
2022/05/15 05:54:46;;;;;;;21.67;7.82;;;;;;;15.68;nan;95191.16;5055739;28;20535;-86
2022/05/15 05:57:12;;;;;;;13.57;7.20;;;;;;;17.04;nan;95402.91;5073406;28;20040;-84
2022/05/15 05:59:38;;;;;;;19.88;7.57;;;;;;;17.71;nan;95501.91;5075643;28;20036;-85
2022/05/15 06:02:04;;;;;;;21.33;8.65;;;;;;;17.43;nan;95463.78;5038472;28;20538;-85
2022/05/15 06:04:42;;;;;;;24.08;7.57;;;;;;;17.04;nan;95375.31;5076182;28;20048;-85
2022/05/15 06:07:20;;;;;;;17.33;7.97;;;;;;;17.45;nan;95424.03;5076010;28;20085;-84
2022/05/15 06:09:48;;;;;;;13.95;6.78;;;;;;;17.00;nan;95366.31;5074008;28;20135;-86
2022/05/15 06:12:19;;;;;;;16.73;6.95;;;;;;;17.32;nan;95412.31;5046920;28;20055;-85
2022/05/15 06:14:44;;;;;;;20.33;8.25;;;;;;;17.39;nan;95414.56;5048854;28;20346;-85
2022/05/15 06:17:10;;;;;;;18.75;6.82;;;;;;;17.30;nan;95378.91;5063604;28;20045;-85
2022/05/15 06:19:36;;;;;;;14.95;6.00;;;;;;;17.88;nan;95477.84;5052232;28;20045;-86
2022/05/15 06:22:01;;;;;;;14.25;6.18;;;;;;;17.25;nan;95354.91;5057263;28;20036;-85
2022/05/15 06:24:27;;;;;;;16.00;6.72;;;;;;;17.64;nan;95413.06;5075710;28;20050;-85
2022/05/15 06:26:54;;;;;;;16.40;6.22;;;;;;;17.59;nan;95389.06;5057410;28;20040;-84
2022/05/15 06:29:19;;;;;;;15.38;6.28;;;;;;;17.52;nan;95394.88;5038814;28;20152;-85
2022/05/15 06:31:46;;;;;;;14.70;6.55;;;;;;;17.68;nan;95419.41;5055784;28;20044;-86
2022/05/15 06:34:13;;;;;;;16.13;7.43;;;;;;;17.20;nan;95342.44;5058961;28;20043;-86
2022/05/15 06:36:39;;;;;;;12.90;5.40;;;;;;;16.45;nan;95222.09;5071618;28;20115;-85
2022/05/15 06:39:05;;;;;;;12.60;6.32;;;;;;;17.96;nan;95477.06;5039807;28;20082;-85
2022/05/15 06:41:30;;;;;;;20.60;6.00;;;;;;;17.48;nan;95391.22;5062265;28;20048;-86
2022/05/15 06:43:56;;;;;;;18.83;6.03;;;;;;;18.25;nan;95494.47;5052579;28;20083;-85
2022/05/15 06:46:21;;;;;;;10.32;5.97;;;;;;;15.77;nan;95117.13;5070211;28;20035;-86
2022/05/15 06:48:47;;;;;;;12.18;5.88;;;;;;;16.73;nan;95254.81;5060101;28;20291;-85
2022/05/15 06:51:16;;;;;;;15.77;5.55;;;;;;;18.43;nan;95504.16;5064917;28;20050;-85
2022/05/15 06:53:43;;;;;;;15.82;5.93;;;;;;;17.96;nan;95436.81;5068444;28;20051;-85
2022/05/15 06:58:53;;;;;;;16.98;5.53;;;;;;;17.84;nan;95409.03;5074945;28;20327;-86
2022/05/15 07:01:18;;;;;;;9.27;4.95;;;;;;;18.07;nan;95434.63;5053869;28;20056;-86
2022/05/15 07:03:44;;;;;;;9.32;5.55;;;;;;;16.98;nan;95267.50;5056460;28;20048;-85
2022/05/15 07:06:10;;;;;;;9.48;5.38;;;;;;;17.42;nan;95332.72;5057183;28;20058;-85
2022/05/15 07:08:36;;;;;;;12.18;5.78;;;;;;;18.61;nan;95496.94;5070341;28;20072;-85
2022/05/15 07:11:02;;;;;;;13.52;5.88;;;;;;;17.63;nan;95318.41;5044322;28;20433;-85
2022/05/15 07:13:27;;;;;;;16.35;5.40;;;;;;;18.84;nan;95503.72;5057003;28;20066;-85
2022/05/15 07:15:53;;;;;;;9.43;4.78;;;;;;;18.43;nan;95439.69;5046684;28;20048;-86
2022/05/15 07:18:18;;;;;;;20.30;4.50;;;;;;;17.72;nan;95329.94;5037108;28;20052;-85
2022/05/15 07:20:44;;;;;;;7.97;5.35;;;;;;;18.30;nan;95428.03;5036476;28;20040;-85
2022/05/15 07:23:09;;;;;;;11.95;4.82;;;;;;;18.22;nan;95412.69;5071831;28;20097;-84
2022/05/15 07:25:35;;;;;;;11.45;4.18;;;;;;;18.08;nan;95369.88;5064676;28;20040;-85
2022/05/15 07:28:00;;;;;;;12.50;3.90;;;;;;;17.60;nan;95311.00;5040151;28;20040;-86
2022/05/15 07:30:26;;;;;;;16.63;4.60;;;;;;;18.26;nan;95407.47;5076038;28;20086;-85
2022/05/15 07:32:51;;;;;;;11.98;3.30;;;;;;;18.62;nan;95434.81;5079194;28;20039;-85
2022/05/15 07:35:18;;;;;;;13.13;4.20;;;;;;;18.19;nan;95375.75;5078822;28;20036;-85
2022/05/15 07:37:43;;;;;;;7.18;3.55;;;;;;;18.49;nan;95392.78;5057541;28;20226;-85
2022/05/15 07:40:10;;;;;;;13.95;3.85;;;;;;;18.19;nan;95350.78;5062775;28;20476;-86
2022/05/15 07:42:38;;;;;;;7.20;3.95;;;;;;;18.37;nan;95401.47;5055888;28;20047;-86
2022/05/15 07:45:04;;;;;;;12.80;4.22;;;;;;;18.83;nan;95429.56;5062455;28;20525;-85
2022/05/15 07:47:29;;;;;;;12.07;4.38;;;;;;;18.70;nan;95419.78;5078009;28;20043;-86
2022/05/15 07:49:55;;;;;;;11.00;3.47;;;;;;;18.33;nan;95348.72;5068996;28;20519;-86
2022/05/15 07:52:20;;;;;;;10.55;3.58;;;;;;;19.25;nan;95517.41;5058428;28;20123;-85
2022/05/15 07:54:46;;;;;;;20.00;3.95;;;;;;;17.88;nan;95313.38;5068210;28;20094;-86
2022/05/15 07:57:11;;;;;;;7.88;2.88;;;;;;;18.34;nan;95390.56;5048135;28;20079;-86
2022/05/15 07:59:36;;;;;;;12.98;3.33;;;;;;;18.91;nan;95433.34;5049656;28;20051;-86
2022/05/15 08:02:06;;;;;;;8.52;3.15;;;;;;;17.89;nan;95272.03;5055729;28;20055;-84
2022/05/15 08:08:00;;;;;;;11.18;3.40;;;;;;;19.32;nan;95471.19;5044469;28;20090;-86
2022/05/15 08:10:04;;;;;;;10.60;3.72;;;;;;;19.38;nan;95493.31;5063992;28;20513;-87
2022/05/15 08:12:29;;;;;;;5.85;3.35;;;;;;;17.96;nan;95277.72;5070405;28;20068;-84
2022/05/15 08:14:55;;;;;;;9.75;3.05;;;;;;;18.94;nan;95452.31;5056714;28;20072;-86
2022/05/15 08:17:20;;;;;;;11.63;3.45;;;;;;;18.39;nan;95377.75;5056601;28;20046;-86
2022/05/15 08:25:19;;;;;;;9.88;3.15;;;;;;;18.86;nan;95399.38;5060124;28;20123;-85
2022/05/15 08:27:45;;;;;;;8.05;3.50;;;;;;;19.05;nan;95447.38;5049849;28;20514;-85
2022/05/15 08:30:11;;;;;;;13.65;3.50;;;;;;;18.47;nan;95370.81;5076694;28;20047;-85
2022/05/15 08:32:36;;;;;;;9.10;3.20;;;;;;;19.27;nan;95482.13;5062238;28;20051;-85
2022/05/15 08:35:02;;;;;;;9.15;2.65;;;;;;;19.82;nan;95548.59;5053865;28;20464;-85
2022/05/15 08:37:28;;;;;;;5.15;2.83;;;;;;;18.07;nan;95257.50;5064696;28;20040;-86
2022/05/15 08:39:53;;;;;;;9.20;3.08;;;;;;;19.12;nan;95413.53;5051771;28;20041;-85
2022/05/15 08:42:22;;;;;;;5.47;2.70;;;;;;;19.49;nan;95455.03;5067205;28;20044;-85
2022/05/15 08:44:54;;;;;;;9.25;2.78;;;;;;;19.26;nan;95434.81;5059989;28;20481;-85
2022/05/15 08:47:46;;;;;;;11.95;3.28;;;;;;;19.91;nan;95538.59;5061577;28;20638;-85
2022/05/15 08:50:18;;;;;;;7.03;3.05;;;;;;;19.57;nan;95491.06;5063007;28;20048;-86
2022/05/15 08:53:00;;;;;;;7.38;3.10;;;;;;;18.98;nan;95402.19;5065809;28;20417;-85
2022/05/15 08:55:36;;;;;;;22.33;3.22;;;;;;;19.00;nan;95378.44;5083597;28;21466;-86
2022/05/15 08:58:20;;;;;;;9.88;2.78;;;;;;;20.08;nan;95535.00;5064695;28;20059;-85
2022/05/15 09:00:52;;;;;;;6.43;3.20;;;;;;;19.24;nan;95418.22;5059268;28;20057;-86
2022/05/15 09:03:27;;;;;;;13.20;2.97;;;;;;;19.22;nan;95388.19;5068323;28;20040;-85
2022/05/15 09:06:04;;;;;;;11.98;2.80;;;;;;;20.25;nan;95532.22;5045747;28;20148;-85
2022/05/15 09:09:08;;;;;;;4.60;2.42;;;;;;;19.98;nan;95517.34;5057386;28;20040;-86
2022/05/15 09:12:03;;;;;;;5.07;2.20;;;;;;;20.35;nan;95534.56;5039135;28;20151;-85
2022/05/15 09:14:47;;;;;;;4.88;2.50;;;;;;;20.41;nan;95523.28;5055397;28;20122;-86
2022/05/15 09:17:43;;;;;;;11.00;2.90;;;;;;;20.60;nan;95513.94;5063073;28;20117;-85
2022/05/15 09:20:14;;;;;;;7.00;1.90;;;;;;;19.98;nan;95466.19;5056976;28;20043;-86
2022/05/15 09:22:50;;;;;;;7.78;2.22;;;;;;;20.53;nan;95522.56;5057112;28;20431;-86
2022/05/15 09:25:22;;;;;;;6.65;2.30;;;;;;;20.60;nan;95530.91;5061518;28;20040;-86
2022/05/15 09:28:05;;;;;;;4.47;2.08;;;;;;;20.62;nan;95525.19;5058227;28;20046;-85
2022/05/15 09:30:43;;;;;;;12.38;2.88;;;;;;;20.78;nan;95518.09;5048059;28;20297;-85
2022/05/15 09:33:40;;;;;;;6.18;2.90;;;;;;;20.91;nan;95508.16;5038327;28;20078;-85
2022/05/15 09:36:24;;;;;;;9.50;2.30;;;;;;;20.94;nan;95505.59;5038085;28;20052;-85
2022/05/15 09:39:14;;;;;;;4.90;2.35;;;;;;;19.67;nan;95334.66;5077072;28;20405;-85
2022/05/15 09:44:29;;;;;;;4.50;2.33;;;;;;;21.60;nan;95518.28;5063398;28;20090;-84
2022/05/15 09:47:01;;;;;;;11.98;2.47;;;;;;;21.28;nan;95391.22;5052263;28;20048;-86
2022/05/15 09:49:31;;;;;;;7.40;2.10;;;;;;;22.10;nan;95399.19;5053928;28;21023;-86
2022/05/15 09:51:59;;;;;;;8.82;1.98;;;;;;;23.24;nan;95441.00;5053294;28;20501;-85
2022/05/15 09:54:42;;;;;;;5.25;2.05;;;;;;;24.52;nan;95499.03;5055255;28;20113;-86
2022/05/15 09:57:19;;;;;;;10.93;2.00;;;;;;;25.17;nan;95499.25;5060773;28;20032;-86
2022/05/15 09:59:59;;;;;;;5.35;2.13;;;;;;;25.59;nan;95502.00;5050014;28;20276;-85
2022/05/15 10:02:38;;;;;;;12.13;2.03;;;;;;;25.31;nan;95511.16;5048031;28;20056;-86
2022/05/15 10:05:21;;;;;;;7.18;1.92;;;;;;;24.89;nan;95415.34;5076179;28;20093;-86
2022/05/15 10:07:57;;;;;;;4.53;2.00;;;;;;;25.31;nan;95500.31;5057152;28;20045;-86
2022/05/15 10:10:28;;;;;;;6.18;2.00;;;;;;;25.30;nan;95346.72;5056749;28;20054;-85
2022/05/15 10:12:57;;;;;;;10.10;1.95;;;;;;;25.96;nan;95396.25;5052939;28;20044;-85
2022/05/15 10:15:26;;;;;;;12.35;2.03;;;;;;;25.71;nan;95331.47;5062068;28;20036;-86
2022/05/15 10:17:57;;;;;;;6.35;2.15;;;;;;;26.35;nan;95297.00;5069487;28;20462;-85
2022/05/15 10:20:24;;;;;;;;;;;;;;;27.76;nan;95489.44;5063977;28;20113;-86
2022/05/15 10:22:56;;;;;;;6.03;1.98;;;;;;;27.93;nan;95480.59;5047989;28;19927;-86
2022/05/15 10:25:28;;;;;;;11.05;2.50;;;;;;;27.25;nan;95421.97;5068727;28;21010;-85
2022/05/15 10:28:05;;;;;;;13.25;2.40;;;;;;;27.04;nan;95451.72;5076306;28;20055;-86
2022/05/15 10:30:42;;;;;;;8.60;1.90;;;;;;;26.88;nan;95517.19;5059473;28;20056;-86
2022/05/15 10:33:17;;;;;;;12.95;1.60;;;;;;;26.92;nan;95484.63;5040362;28;20571;-86
2022/05/15 10:35:48;;;;;;;4.90;1.80;;;;;;;27.41;nan;95487.09;5057958;28;20044;-86
2022/05/15 10:38:24;;;;;;;8.93;1.70;;;;;;;27.31;nan;95466.00;5057335;28;20040;-86
2022/05/15 10:40:56;;;;;;;7.13;1.88;;;;;;;27.10;nan;95402.00;5066764;28;20151;-86
2022/05/15 10:43:59;;;;;;;6.70;2.15;;;;;;;27.72;nan;95483.94;5052913;28;20046;-87
2022/05/15 10:46:28;;;;;;;5.32;1.63;;;;;;;27.90;nan;95487.63;5053218;28;20541;-86
2022/05/15 10:49:13;;;;;;;8.90;1.92;;;;;;;27.60;nan;95495.91;5075876;28;20052;-86
2022/05/15 10:51:49;;;;;;;4.80;1.80;;;;;;;27.50;nan;95439.34;5075388;28;20437;-85
2022/05/15 10:57:36;;;;;;;6.88;2.03;;;;;;;28.37;nan;95481.38;5076509;28;20055;-85
2022/05/15 11:00:08;;;;;;;6.00;2.25;;;;;;;27.57;nan;95449.56;5079539;28;20581;-87
2022/05/15 11:03:11;;;;;;;5.80;2.03;;;;;;;27.82;nan;95479.75;5042613;28;20081;-86
2022/05/15 11:06:19;;;;;;;5.45;1.75;;;;;;;27.80;nan;95487.50;5060265;28;20512;-85
2022/05/15 11:09:14;;;;;;;10.20;2.03;;;;;;;28.18;nan;95473.44;5072167;28;20583;-85
2022/05/15 11:11:48;;;;;;;9.77;2.40;;;;;;;27.07;nan;95486.38;5005416;28;20499;-85
2022/05/15 11:14:22;;;;;;;6.30;2.20;;;;;;;27.02;nan;95429.50;5040849;28;20059;-86
2022/05/15 11:16:56;;;;;;;4.75;2.20;;;;;;;27.50;nan;95460.34;5044924;28;20043;-86
2022/05/15 11:19:22;;;;;;;7.53;2.65;;;;;;;26.97;nan;95466.03;5077960;28;20040;-86
2022/05/15 11:21:53;;;;;;;6.00;2.33;;;;;;;26.98;nan;95469.53;5077419;28;20101;-86
2022/05/15 11:24:40;;;;;;;8.48;2.53;;;;;;;27.35;nan;95470.31;5074152;28;20139;-85
2022/05/15 11:27:30;;;;;;;12.68;2.78;;;;;;;27.69;nan;95451.22;5046447;28;20048;-86
2022/05/15 11:30:08;;;;;;;9.55;2.28;;;;;;;26.94;nan;95404.16;5077194;28;20052;-86
2022/05/15 11:32:34;;;;;;;9.30;2.58;;;;;;;26.87;nan;95453.81;5077221;28;20043;-86
2022/05/15 11:35:12;;;;;;;5.72;2.50;;;;;;;27.42;nan;95445.88;5063577;28;20044;-86
2022/05/15 11:37:37;;;;;;;11.18;2.65;;;;;;;27.48;nan;95441.66;5055116;28;20381;-86
2022/05/15 11:40:04;;;;;;;10.55;2.92;;;;;;;27.58;nan;95418.44;5047271;28;20930;-87
2022/05/15 11:42:30;;;;;;;6.30;2.90;;;;;;;26.99;nan;95384.00;5053621;28;20613;-87
2022/05/15 11:45:28;;;;;;;6.65;2.20;;;;;;;27.81;nan;95437.31;5050567;28;20054;-86
2022/05/15 11:47:59;;;;;;;10.07;2.38;;;;;;;28.14;nan;95439.91;5079969;28;20106;-86
2022/05/15 11:50:41;;;;;;;8.25;2.90;;;;;;;27.63;nan;95445.31;5079174;28;20110;-86
2022/05/15 11:53:12;;;;;;;12.40;2.63;;;;;;;27.99;nan;95417.22;5060653;28;20068;-85
2022/05/15 11:55:45;;;;;;;3.65;2.25;;;;;;;28.29;nan;95436.13;5060238;28;20051;-86
2022/05/15 11:58:26;;;;;;;7.20;2.70;;;;;;;27.66;nan;95439.13;5059904;28;20563;-86
2022/05/15 12:01:10;;;;;;;13.30;2.83;;;;;;;26.53;nan;95425.03;5059442;28;20148;-86
2022/05/15 12:03:39;;;;;;;19.02;3.25;;;;;;;26.19;nan;95442.41;5046943;28;20054;-87
2022/05/15 12:06:13;;;;;;;24.48;2.97;;;;;;;25.94;nan;95437.38;5058404;28;20076;-86
2022/05/15 12:08:41;;;;;;;9.75;3.30;;;;;;;25.69;nan;95428.06;5052818;28;20375;-85
2022/05/15 12:11:26;;;;;;;22.20;5.90;;;;;;;25.10;nan;95379.72;5056530;28;20048;-85
2022/05/15 12:13:54;;;;;;;9.70;3.40;;;;;;;25.40;nan;95363.56;5078456;28;20036;-85